Into The Blue — MGNM5 — position and weather

sailwx.info

Track history (hours):
 
Tides and Currents Weather Stations Pressure Air Temp Water Temp Dewpoint Dewpoint Depression Visibility Wind Speed Wind Dir Waves Ship Positions

Into The Blue

Last reported at 2017-Sep-27 01:00 UTC. Time now 2017-Oct-22 06:32 UTC.
Position N 28°08' W 015°26'.
Warning: this ship's position is 25 days out of date.

Length 19 m.

Type: Sailing vessel. MMSI: 232432000.

Date/timePositionNaut miles runAvg speedWind from/ knotsBaromVisibWave heightAir tempDewpointWater temp
2017-Sep-27 01:00N 28°08' W 015°26'0 0.0
2017-Sep-27 00:30N 28°08' W 015°26'0 0.0
2017-Sep-27 00:00N 28°08' W 015°26'0 0.0
2017-Sep-26 23:03N 28°08' W 015°26'0 0.0
2017-Sep-26 22:51N 28°08' W 015°26'0 0.0
2017-Sep-26 22:24N 28°08' W 015°26'0 0.0
2017-Sep-26 21:54N 28°08' W 015°26'0 0.0
2017-Sep-26 21:24N 28°08' W 015°26'0 0.0
2017-Sep-26 20:54N 28°08' W 015°26'0 0.0
2017-Sep-26 20:21N 28°08' W 015°26'0 0.0
2017-Sep-26 19:54N 28°08' W 015°26'0 0.0
2017-Sep-26 19:27N 28°08' W 015°26'0 0.0
2017-Sep-26 18:51N 28°08' W 015°26'0 0.0
2017-Sep-26 18:27N 28°08' W 015°26'0 0.0
2017-Sep-26 17:57N 28°08' W 015°26'0 0.0
2017-Sep-26 17:27N 28°08' W 015°26'0 0.0
2017-Sep-26 17:00N 28°08' W 015°26'0 0.1
2017-Sep-26 16:30N 28°08' W 015°26'0 0.0
2017-Sep-26 16:00N 28°08' W 015°25'0 0.0
2017-Sep-26 15:30N 28°08' W 015°25'0 0.0
2017-Sep-26 15:00N 28°08' W 015°25'0 0.0
2017-Sep-26 14:30N 28°08' W 015°25'0 0.0
2017-Sep-26 14:00N 28°08' W 015°25'0 0.0
2017-Sep-26 13:30N 28°08' W 015°26'0 0.4
2017-Sep-26 13:00N 28°08' W 015°25'0 0.0
2017-Sep-26 12:30N 28°08' W 015°25'0 0.0
2017-Sep-26 11:51N 28°08' W 015°25'0 0.0
2017-Sep-26 11:30N 28°08' W 015°25'0 0.0
2017-Sep-26 10:48N 28°08' W 015°25'0 0.0
2017-Sep-26 10:21N 28°08' W 015°25'0 0.3
2017-Sep-26 10:00N 28°08' W 015°25'2 4.8
2017-Sep-26 09:30N 28°07' W 015°23'2 4.3
2017-Sep-26 09:00N 28°07' W 015°20'3 6.3
2017-Sep-26 08:30N 28°08' W 015°17'3 6.5
2017-Sep-26 08:00N 28°10' W 015°14'3 5.6
2017-Sep-26 07:30N 28°12' W 015°11'3 6.5
2017-Sep-26 07:00N 28°14' W 015°08'3 6.7
2017-Sep-26 06:30N 28°16' W 015°05'3 6.6
2017-Sep-26 06:00N 28°18' W 015°03'3 6.5
2017-Sep-26 05:30N 28°20' W 014°60'3 6.5
2017-Sep-26 05:00N 28°22' W 014°57'3 6.5
2017-Sep-26 04:30N 28°24' W 014°54'3 6.7
2017-Sep-26 04:00N 28°26' W 014°51'4 6.9
2017-Sep-26 03:29N 28°28' W 014°47'3 6.8
2017-Sep-26 02:59N 28°30' W 014°44'3 6.5
2017-Sep-26 02:29N 28°32' W 014°41'3 6.2
2017-Sep-26 01:58N 28°33' W 014°38'  
2017-Sep-23 19:38N 33°17' W 011°51'319 6.6
2017-Sep-21 19:38N 38°14' W 009°31'2 7.6
2017-Sep-21 19:20N 38°16' W 009°30'3 7.9
2017-Sep-21 19:00N 38°19' W 009°29'4 8.0
2017-Sep-21 18:30N 38°23' W 009°28'4 8.2
2017-Sep-21 18:00N 38°27' W 009°27'4 8.6
2017-Sep-21 17:30N 38°31' W 009°26'4 7.4
2017-Sep-21 17:00N 38°34' W 009°25'3 6.4
2017-Sep-21 16:30N 38°38' W 009°25'3 6.9
2017-Sep-21 16:00N 38°41' W 009°25'1 0.2
2017-Sep-21 13:16N 38°42' W 009°25'1 2.4
2017-Sep-21 13:00N 38°41' W 009°26'3 5.7
2017-Sep-21 12:30N 38°42' W 009°29'3 5.5
2017-Sep-21 12:00N 38°44' W 009°31'3 6.4
2017-Sep-21 11:30N 38°47' W 009°32'3 6.3
2017-Sep-21 11:00N 38°51' W 009°32'3 6.8
2017-Sep-21 10:30N 38°54' W 009°33'3 6.5
2017-Sep-21 10:00N 38°57' W 009°33'3 6.5
2017-Sep-21 09:31N 39°00' W 009°33'3 6.7
2017-Sep-21 09:00N 39°04' W 009°33'4 6.8
2017-Sep-21 08:29N 39°07' W 009°34'3 6.7
2017-Sep-21 07:59N 39°11' W 009°34'  
2017-Sep-17 10:58N 48°07' W 005°33'7 6.5
2017-Sep-17 09:53N 48°13' W 005°26'4 4.3
2017-Sep-17 08:58N 48°16' W 005°22'6 5.6
2017-Sep-17 07:53N 48°21' W 005°17'5 6.0
2017-Sep-17 06:59N 48°26' W 005°13'8 7.7
2017-Sep-17 05:58N 48°32' W 005°06'4 7.7
2017-Sep-17 05:30N 48°34' W 005°02'4 7.3
2017-Sep-17 05:00N 48°36' W 004°57'3 6.9
2017-Sep-17 04:30N 48°38' W 004°53'4 7.2
2017-Sep-17 03:57N 48°40' W 004°48'  
Track history (hours):
 
Tides and Currents Weather Stations Pressure Air Temp Water Temp Dewpoint Dewpoint Depression Visibility Wind Speed Wind Dir Waves Ship Positions

Into The Blue

Last reported at 2017-Sep-27 01:00 UTC. Time now 2017-Oct-22 06:32 UTC.
Position N 28°08' W 015°26'.
Warning: this ship's position is 25 days out of date.

Length 19 m.

Type: Sailing vessel. MMSI: 232432000.

Date/timePositionNaut miles runAvg speedWind from/ knotsBaromVisibWave heightAir tempDewpointWater temp
2017-Sep-27 01:00N 28°08' W 015°26'0 0.0
2017-Sep-27 00:30N 28°08' W 015°26'0 0.0
2017-Sep-27 00:00N 28°08' W 015°26'0 0.0
2017-Sep-26 23:03N 28°08' W 015°26'0 0.0
2017-Sep-26 22:51N 28°08' W 015°26'0 0.0
2017-Sep-26 22:24N 28°08' W 015°26'0 0.0
2017-Sep-26 21:54N 28°08' W 015°26'0 0.0
2017-Sep-26 21:24N 28°08' W 015°26'0 0.0
2017-Sep-26 20:54N 28°08' W 015°26'0 0.0
2017-Sep-26 20:21N 28°08' W 015°26'0 0.0
2017-Sep-26 19:54N 28°08' W 015°26'0 0.0
2017-Sep-26 19:27N 28°08' W 015°26'0 0.0
2017-Sep-26 18:51N 28°08' W 015°26'0 0.0
2017-Sep-26 18:27N 28°08' W 015°26'0 0.0
2017-Sep-26 17:57N 28°08' W 015°26'0 0.0
2017-Sep-26 17:27N 28°08' W 015°26'0 0.0
2017-Sep-26 17:00N 28°08' W 015°26'0 0.1
2017-Sep-26 16:30N 28°08' W 015°26'0 0.0
2017-Sep-26 16:00N 28°08' W 015°25'0 0.0
2017-Sep-26 15:30N 28°08' W 015°25'0 0.0
2017-Sep-26 15:00N 28°08' W 015°25'0 0.0
2017-Sep-26 14:30N 28°08' W 015°25'0 0.0
2017-Sep-26 14:00N 28°08' W 015°25'0 0.0
2017-Sep-26 13:30N 28°08' W 015°26'0 0.4
2017-Sep-26 13:00N 28°08' W 015°25'0 0.0
2017-Sep-26 12:30N 28°08' W 015°25'0 0.0
2017-Sep-26 11:51N 28°08' W 015°25'0 0.0
2017-Sep-26 11:30N 28°08' W 015°25'0 0.0
2017-Sep-26 10:48N 28°08' W 015°25'0 0.0
2017-Sep-26 10:21N 28°08' W 015°25'0 0.3
2017-Sep-26 10:00N 28°08' W 015°25'2 4.8
2017-Sep-26 09:30N 28°07' W 015°23'2 4.3
2017-Sep-26 09:00N 28°07' W 015°20'3 6.3
2017-Sep-26 08:30N 28°08' W 015°17'3 6.5
2017-Sep-26 08:00N 28°10' W 015°14'3 5.6
2017-Sep-26 07:30N 28°12' W 015°11'3 6.5
2017-Sep-26 07:00N 28°14' W 015°08'3 6.7
2017-Sep-26 06:30N 28°16' W 015°05'3 6.6
2017-Sep-26 06:00N 28°18' W 015°03'3 6.5
2017-Sep-26 05:30N 28°20' W 014°60'3 6.5
2017-Sep-26 05:00N 28°22' W 014°57'3 6.5
2017-Sep-26 04:30N 28°24' W 014°54'3 6.7
2017-Sep-26 04:00N 28°26' W 014°51'4 6.9
2017-Sep-26 03:29N 28°28' W 014°47'3 6.8
2017-Sep-26 02:59N 28°30' W 014°44'3 6.5
2017-Sep-26 02:29N 28°32' W 014°41'3 6.2
2017-Sep-26 01:58N 28°33' W 014°38'  
2017-Sep-23 19:38N 33°17' W 011°51'319 6.6
2017-Sep-21 19:38N 38°14' W 009°31'2 7.6
2017-Sep-21 19:20N 38°16' W 009°30'3 7.9
2017-Sep-21 19:00N 38°19' W 009°29'4 8.0
2017-Sep-21 18:30N 38°23' W 009°28'4 8.2
2017-Sep-21 18:00N 38°27' W 009°27'4 8.6
2017-Sep-21 17:30N 38°31' W 009°26'4 7.4
2017-Sep-21 17:00N 38°34' W 009°25'3 6.4
2017-Sep-21 16:30N 38°38' W 009°25'3 6.9
2017-Sep-21 16:00N 38°41' W 009°25'1 0.2
2017-Sep-21 13:16N 38°42' W 009°25'1 2.4
2017-Sep-21 13:00N 38°41' W 009°26'3 5.7
2017-Sep-21 12:30N 38°42' W 009°29'3 5.5
2017-Sep-21 12:00N 38°44' W 009°31'3 6.4
2017-Sep-21 11:30N 38°47' W 009°32'3 6.3
2017-Sep-21 11:00N 38°51' W 009°32'3 6.8
2017-Sep-21 10:30N 38°54' W 009°33'3 6.5
2017-Sep-21 10:00N 38°57' W 009°33'3 6.5
2017-Sep-21 09:31N 39°00' W 009°33'3 6.7
2017-Sep-21 09:00N 39°04' W 009°33'4 6.8
2017-Sep-21 08:29N 39°07' W 009°34'3 6.7
2017-Sep-21 07:59N 39°11' W 009°34'  
2017-Sep-17 10:58N 48°07' W 005°33'7 6.5
2017-Sep-17 09:53N 48°13' W 005°26'4 4.3
2017-Sep-17 08:58N 48°16' W 005°22'6 5.6
2017-Sep-17 07:53N 48°21' W 005°17'5 6.0
2017-Sep-17 06:59N 48°26' W 005°13'8 7.7
2017-Sep-17 05:58N 48°32' W 005°06'4 7.7
2017-Sep-17 05:30N 48°34' W 005°02'4 7.3
2017-Sep-17 05:00N 48°36' W 004°57'3 6.9
2017-Sep-17 04:30N 48°38' W 004°53'4 7.2
2017-Sep-17 03:57N 48°40' W 004°48'  

Dump ship's entire track history